sensor_id;sensor_type;location;lat;lon;timestamp;P1;durP1;ratioP1;P2;durP2;ratioP2
20104;SDS011;10212;42.714;23.310;2022-11-24T00:00:27;17.27;;;7.05;;
20104;SDS011;10212;42.714;23.310;2022-11-24T00:05:28;13.52;;;6.45;;
20104;SDS011;10212;42.714;23.310;2022-11-24T00:10:29;13.15;;;6.25;;
20104;SDS011;10212;42.714;23.310;2022-11-24T00:15:29;13.43;;;6.80;;
20104;SDS011;10212;42.714;23.310;2022-11-24T00:20:31;11.10;;;6.45;;
20104;SDS011;10212;42.714;23.310;2022-11-24T00:25:32;12.35;;;6.68;;
20104;SDS011;10212;42.714;23.310;2022-11-24T00:30:32;12.23;;;6.55;;
20104;SDS011;10212;42.714;23.310;2022-11-24T00:35:33;11.55;;;6.72;;
20104;SDS011;10212;42.714;23.310;2022-11-24T00:40:33;10.75;;;6.38;;
20104;SDS011;10212;42.714;23.310;2022-11-24T00:45:34;13.55;;;6.28;;
20104;SDS011;10212;42.714;23.310;2022-11-24T00:50:34;12.48;;;6.63;;
20104;SDS011;10212;42.714;23.310;2022-11-24T00:55:35;15.55;;;7.22;;
20104;SDS011;10212;42.714;23.310;2022-11-24T01:00:36;11.13;;;6.80;;
20104;SDS011;10212;42.714;23.310;2022-11-24T01:05:36;16.48;;;7.53;;
20104;SDS011;10212;42.714;23.310;2022-11-24T01:10:37;19.63;;;7.97;;
20104;SDS011;10212;42.714;23.310;2022-11-24T01:15:38;16.48;;;8.00;;
20104;SDS011;10212;42.714;23.310;2022-11-24T01:20:38;14.95;;;7.15;;
20104;SDS011;10212;42.714;23.310;2022-11-24T01:25:39;11.82;;;7.20;;
20104;SDS011;10212;42.714;23.310;2022-11-24T01:30:40;18.00;;;10.40;;
20104;SDS011;10212;42.714;23.310;2022-11-24T01:35:40;18.65;;;10.50;;
20104;SDS011;10212;42.714;23.310;2022-11-24T01:40:41;18.48;;;10.70;;
20104;SDS011;10212;42.714;23.310;2022-11-24T01:45:42;27.52;;;14.57;;
20104;SDS011;10212;42.714;23.310;2022-11-24T01:50:43;27.15;;;15.73;;
20104;SDS011;10212;42.714;23.310;2022-11-24T01:55:45;29.02;;;16.83;;
20104;SDS011;10212;42.714;23.310;2022-11-24T02:00:46;31.02;;;17.10;;
20104;SDS011;10212;42.714;23.310;2022-11-24T02:10:47;29.48;;;18.00;;
20104;SDS011;10212;42.714;23.310;2022-11-24T02:15:48;46.78;;;20.35;;
20104;SDS011;10212;42.714;23.310;2022-11-24T02:20:48;34.78;;;18.55;;
20104;SDS011;10212;42.714;23.310;2022-11-24T02:25:56;25.90;;;15.32;;
20104;SDS011;10212;42.714;23.310;2022-11-24T02:31:05;26.80;;;15.90;;
20104;SDS011;10212;42.714;23.310;2022-11-24T02:36:06;33.28;;;16.52;;
20104;SDS011;10212;42.714;23.310;2022-11-24T02:41:08;23.42;;;14.43;;
20104;SDS011;10212;42.714;23.310;2022-11-24T02:46:10;27.02;;;15.88;;
20104;SDS011;10212;42.714;23.310;2022-11-24T02:51:11;28.08;;;16.20;;
20104;SDS011;10212;42.714;23.310;2022-11-24T02:56:12;26.27;;;15.35;;
20104;SDS011;10212;42.714;23.310;2022-11-24T03:01:12;27.15;;;16.33;;
20104;SDS011;10212;42.714;23.310;2022-11-24T03:06:13;28.90;;;16.73;;
20104;SDS011;10212;42.714;23.310;2022-11-24T03:11:13;31.13;;;17.25;;
20104;SDS011;10212;42.714;23.310;2022-11-24T03:16:14;29.67;;;17.20;;
20104;SDS011;10212;42.714;23.310;2022-11-24T03:21:14;29.38;;;15.55;;
20104;SDS011;10212;42.714;23.310;2022-11-24T03:26:16;29.83;;;15.55;;
20104;SDS011;10212;42.714;23.310;2022-11-24T03:36:32;26.45;;;14.73;;
20104;SDS011;10212;42.714;23.310;2022-11-24T03:41:33;25.90;;;14.38;;
20104;SDS011;10212;42.714;23.310;2022-11-24T03:46:33;25.92;;;14.18;;
20104;SDS011;10212;42.714;23.310;2022-11-24T03:51:34;25.95;;;14.35;;
20104;SDS011;10212;42.714;23.310;2022-11-24T03:56:35;25.30;;;14.57;;
20104;SDS011;10212;42.714;23.310;2022-11-24T04:01:36;27.02;;;14.82;;
20104;SDS011;10212;42.714;23.310;2022-11-24T04:06:37;30.65;;;15.30;;
20104;SDS011;10212;42.714;23.310;2022-11-24T04:11:37;27.08;;;15.07;;
20104;SDS011;10212;42.714;23.310;2022-11-24T04:16:57;26.33;;;14.63;;
20104;SDS011;10212;42.714;23.310;2022-11-24T04:21:57;30.95;;;14.02;;
20104;SDS011;10212;42.714;23.310;2022-11-24T04:26:58;31.95;;;15.68;;
20104;SDS011;10212;42.714;23.310;2022-11-24T04:31:58;32.50;;;16.45;;
20104;SDS011;10212;42.714;23.310;2022-11-24T04:36:59;30.20;;;15.43;;
20104;SDS011;10212;42.714;23.310;2022-11-24T04:42:00;24.38;;;15.02;;
20104;SDS011;10212;42.714;23.310;2022-11-24T04:47:00;25.85;;;15.15;;
20104;SDS011;10212;42.714;23.310;2022-11-24T04:52:01;28.55;;;15.48;;
20104;SDS011;10212;42.714;23.310;2022-11-24T04:57:01;31.42;;;17.35;;
20104;SDS011;10212;42.714;23.310;2022-11-24T05:02:02;33.08;;;16.33;;
20104;SDS011;10212;42.714;23.310;2022-11-24T05:07:02;28.55;;;15.50;;
20104;SDS011;10212;42.714;23.310;2022-11-24T05:12:03;22.90;;;14.40;;
20104;SDS011;10212;42.714;23.310;2022-11-24T05:17:04;27.67;;;15.35;;
20104;SDS011;10212;42.714;23.310;2022-11-24T05:22:04;46.03;;;26.23;;
20104;SDS011;10212;42.714;23.310;2022-11-24T05:27:05;44.83;;;27.60;;
20104;SDS011;10212;42.714;23.310;2022-11-24T05:32:05;36.05;;;22.15;;
20104;SDS011;10212;42.714;23.310;2022-11-24T05:37:06;46.60;;;28.40;;
20104;SDS011;10212;42.714;23.310;2022-11-24T05:42:07;54.75;;;26.88;;
20104;SDS011;10212;42.714;23.310;2022-11-24T05:47:27;37.08;;;19.23;;
20104;SDS011;10212;42.714;23.310;2022-11-24T05:52:27;71.40;;;40.67;;
20104;SDS011;10212;42.714;23.310;2022-11-24T05:57:28;39.88;;;21.20;;
20104;SDS011;10212;42.714;23.310;2022-11-24T06:02:29;41.72;;;25.15;;
20104;SDS011;10212;42.714;23.310;2022-11-24T06:07:29;48.45;;;25.92;;
20104;SDS011;10212;42.714;23.310;2022-11-24T06:12:30;39.75;;;23.58;;
20104;SDS011;10212;42.714;23.310;2022-11-24T06:17:30;35.42;;;19.92;;
20104;SDS011;10212;42.714;23.310;2022-11-24T06:22:31;35.42;;;19.40;;
20104;SDS011;10212;42.714;23.310;2022-11-24T06:27:32;33.67;;;18.88;;
20104;SDS011;10212;42.714;23.310;2022-11-24T06:32:33;29.45;;;17.38;;
20104;SDS011;10212;42.714;23.310;2022-11-24T06:37:34;31.85;;;18.00;;
20104;SDS011;10212;42.714;23.310;2022-11-24T06:42:36;34.78;;;18.65;;
20104;SDS011;10212;42.714;23.310;2022-11-24T06:47:37;47.88;;;25.98;;
20104;SDS011;10212;42.714;23.310;2022-11-24T06:52:37;49.22;;;24.75;;
20104;SDS011;10212;42.714;23.310;2022-11-24T06:57:38;45.75;;;25.83;;
20104;SDS011;10212;42.714;23.310;2022-11-24T07:02:38;51.28;;;23.42;;
20104;SDS011;10212;42.714;23.310;2022-11-24T07:07:39;42.60;;;21.50;;
20104;SDS011;10212;42.714;23.310;2022-11-24T07:12:39;26.27;;;13.73;;
20104;SDS011;10212;42.714;23.310;2022-11-24T07:17:40;100.13;;;32.78;;
20104;SDS011;10212;42.714;23.310;2022-11-24T07:22:41;34.50;;;16.02;;
20104;SDS011;10212;42.714;23.310;2022-11-24T07:27:41;23.73;;;11.48;;
20104;SDS011;10212;42.714;23.310;2022-11-24T07:32:41;19.35;;;10.93;;
20104;SDS011;10212;42.714;23.310;2022-11-24T07:37:42;20.45;;;11.88;;
20104;SDS011;10212;42.714;23.310;2022-11-24T07:42:43;27.17;;;15.00;;
20104;SDS011;10212;42.714;23.310;2022-11-24T07:47:44;28.73;;;14.95;;
20104;SDS011;10212;42.714;23.310;2022-11-24T07:52:45;22.63;;;13.77;;
20104;SDS011;10212;42.714;23.310;2022-11-24T07:57:45;23.05;;;14.38;;
20104;SDS011;10212;42.714;23.310;2022-11-24T08:02:46;18.73;;;12.60;;
20104;SDS011;10212;42.714;23.310;2022-11-24T08:07:46;15.82;;;10.68;;
20104;SDS011;10212;42.714;23.310;2022-11-24T08:12:47;17.55;;;11.73;;
20104;SDS011;10212;42.714;23.310;2022-11-24T08:17:47;19.15;;;11.35;;
20104;SDS011;10212;42.714;23.310;2022-11-24T08:22:48;14.15;;;9.75;;
20104;SDS011;10212;42.714;23.310;2022-11-24T08:27:48;14.75;;;10.13;;
20104;SDS011;10212;42.714;23.310;2022-11-24T08:32:49;15.75;;;8.48;;
20104;SDS011;10212;42.714;23.310;2022-11-24T08:37:49;12.20;;;7.95;;
20104;SDS011;10212;42.714;23.310;2022-11-24T08:42:50;10.30;;;7.20;;
20104;SDS011;10212;42.714;23.310;2022-11-24T08:47:55;8.98;;;5.78;;
20104;SDS011;10212;42.714;23.310;2022-11-24T08:52:56;5.68;;;4.18;;
20104;SDS011;10212;42.714;23.310;2022-11-24T08:57:56;5.05;;;3.55;;
20104;SDS011;10212;42.714;23.310;2022-11-24T09:02:57;5.55;;;2.33;;
20104;SDS011;10212;42.714;23.310;2022-11-24T09:07:58;4.72;;;2.63;;
20104;SDS011;10212;42.714;23.310;2022-11-24T09:12:59;3.53;;;1.60;;
20104;SDS011;10212;42.714;23.310;2022-11-24T09:17:59;2.85;;;1.48;;
20104;SDS011;10212;42.714;23.310;2022-11-24T09:23:00;2.67;;;1.90;;
20104;SDS011;10212;42.714;23.310;2022-11-24T09:28:00;1.48;;;1.30;;
20104;SDS011;10212;42.714;23.310;2022-11-24T09:33:01;2.72;;;1.58;;
20104;SDS011;10212;42.714;23.310;2022-11-24T09:38:02;2.40;;;1.60;;
20104;SDS011;10212;42.714;23.310;2022-11-24T09:43:10;2.88;;;1.50;;
20104;SDS011;10212;42.714;23.310;2022-11-24T09:48:35;2.80;;;1.40;;
20104;SDS011;10212;42.714;23.310;2022-11-24T09:53:45;3.57;;;1.70;;
20104;SDS011;10212;42.714;23.310;2022-11-24T09:58:58;1.70;;;1.50;;
20104;SDS011;10212;42.714;23.310;2022-11-24T10:04:02;1.95;;;1.60;;
20104;SDS011;10212;42.714;23.310;2022-11-24T10:25:46;3.00;;;2.63;;
20104;SDS011;10212;42.714;23.310;2022-11-24T10:30:59;2.38;;;1.90;;
20104;SDS011;10212;42.714;23.310;2022-11-24T10:42:02;3.58;;;2.50;;
20104;SDS011;10212;42.714;23.310;2022-11-24T10:47:17;4.20;;;2.80;;
20104;SDS011;10212;42.714;23.310;2022-11-24T10:52:19;3.25;;;2.60;;
20104;SDS011;10212;42.714;23.310;2022-11-24T10:57:31;4.50;;;2.92;;
20104;SDS011;10212;42.714;23.310;2022-11-24T11:02:36;4.07;;;2.97;;
20104;SDS011;10212;42.714;23.310;2022-11-24T11:07:38;3.95;;;2.80;;
20104;SDS011;10212;42.714;23.310;2022-11-24T11:12:38;6.55;;;3.80;;
20104;SDS011;10212;42.714;23.310;2022-11-24T11:17:39;5.20;;;3.60;;
20104;SDS011;10212;42.714;23.310;2022-11-24T11:22:41;6.57;;;3.95;;
20104;SDS011;10212;42.714;23.310;2022-11-24T11:27:44;4.78;;;3.80;;
20104;SDS011;10212;42.714;23.310;2022-11-24T11:33:17;5.88;;;4.10;;
20104;SDS011;10212;42.714;23.310;2022-11-24T11:38:24;6.80;;;4.38;;
20104;SDS011;10212;42.714;23.310;2022-11-24T11:43:35;104.47;;;38.10;;
20104;SDS011;10212;42.714;23.310;2022-11-24T11:48:43;7.57;;;4.95;;
20104;SDS011;10212;42.714;23.310;2022-11-24T11:53:48;8.40;;;4.18;;
20104;SDS011;10212;42.714;23.310;2022-11-24T12:04:51;6.40;;;4.32;;
20104;SDS011;10212;42.714;23.310;2022-11-24T12:10:06;7.07;;;3.78;;
20104;SDS011;10212;42.714;23.310;2022-11-24T12:20:53;6.82;;;3.90;;
20104;SDS011;10212;42.714;23.310;2022-11-24T12:48:15;9.10;;;5.28;;
20104;SDS011;10212;42.714;23.310;2022-11-24T12:53:21;6.07;;;3.60;;
20104;SDS011;10212;42.714;23.310;2022-11-24T12:58:41;6.72;;;4.60;;
20104;SDS011;10212;42.714;23.310;2022-11-24T13:08:54;4.95;;;3.92;;
20104;SDS011;10212;42.714;23.310;2022-11-24T13:13:59;4.63;;;3.60;;
20104;SDS011;10212;42.714;23.310;2022-11-24T13:19:12;5.00;;;3.67;;
20104;SDS011;10212;42.714;23.310;2022-11-24T13:39:49;4.22;;;3.25;;
20104;SDS011;10212;42.714;23.310;2022-11-24T13:56:02;5.53;;;3.85;;
20104;SDS011;10212;42.714;23.310;2022-11-24T14:01:13;6.88;;;4.18;;
20104;SDS011;10212;42.714;23.310;2022-11-24T14:06:32;4.75;;;3.00;;
20104;SDS011;10212;42.714;23.310;2022-11-24T14:11:42;3.53;;;3.00;;
20104;SDS011;10212;42.714;23.310;2022-11-24T14:16:45;6.97;;;3.47;;
20104;SDS011;10212;42.714;23.310;2022-11-24T14:21:46;5.82;;;3.15;;
20104;SDS011;10212;42.714;23.310;2022-11-24T14:26:47;3.10;;;2.53;;
20104;SDS011;10212;42.714;23.310;2022-11-24T14:31:52;3.60;;;2.60;;
20104;SDS011;10212;42.714;23.310;2022-11-24T14:36:53;3.70;;;2.45;;
20104;SDS011;10212;42.714;23.310;2022-11-24T14:47:04;4.50;;;3.03;;
20104;SDS011;10212;42.714;23.310;2022-11-24T14:52:13;3.92;;;2.83;;
20104;SDS011;10212;42.714;23.310;2022-11-24T14:57:36;3.78;;;3.00;;
20104;SDS011;10212;42.714;23.310;2022-11-24T15:02:41;4.20;;;3.42;;
20104;SDS011;10212;42.714;23.310;2022-11-24T15:07:47;8.15;;;4.70;;
20104;SDS011;10212;42.714;23.310;2022-11-24T15:12:54;6.30;;;4.00;;
20104;SDS011;10212;42.714;23.310;2022-11-24T15:17:58;4.88;;;3.50;;
20104;SDS011;10212;42.714;23.310;2022-11-24T15:28:12;7.75;;;4.50;;
20104;SDS011;10212;42.714;23.310;2022-11-24T15:33:14;6.60;;;4.60;;
20104;SDS011;10212;42.714;23.310;2022-11-24T15:38:16;7.22;;;4.68;;
20104;SDS011;10212;42.714;23.310;2022-11-24T15:43:28;6.07;;;4.32;;
20104;SDS011;10212;42.714;23.310;2022-11-24T15:48:29;4.22;;;3.78;;
20104;SDS011;10212;42.714;23.310;2022-11-24T15:58:53;7.88;;;4.05;;
20104;SDS011;10212;42.714;23.310;2022-11-24T16:03:54;5.45;;;3.60;;
20104;SDS011;10212;42.714;23.310;2022-11-24T16:08:54;5.85;;;4.10;;
20104;SDS011;10212;42.714;23.310;2022-11-24T16:13:56;6.63;;;4.28;;
20104;SDS011;10212;42.714;23.310;2022-11-24T16:18:57;6.10;;;4.22;;
20104;SDS011;10212;42.714;23.310;2022-11-24T16:23:58;5.97;;;4.25;;
20104;SDS011;10212;42.714;23.310;2022-11-24T16:28:58;6.80;;;4.68;;
20104;SDS011;10212;42.714;23.310;2022-11-24T16:33:59;7.63;;;4.88;;
20104;SDS011;10212;42.714;23.310;2022-11-24T16:39:01;5.72;;;4.15;;
20104;SDS011;10212;42.714;23.310;2022-11-24T16:44:01;3.83;;;3.05;;
20104;SDS011;10212;42.714;23.310;2022-11-24T16:49:02;6.35;;;3.83;;
20104;SDS011;10212;42.714;23.310;2022-11-24T16:54:03;4.07;;;3.40;;
20104;SDS011;10212;42.714;23.310;2022-11-24T16:59:03;5.13;;;3.65;;
20104;SDS011;10212;42.714;23.310;2022-11-24T17:04:05;4.78;;;3.67;;
20104;SDS011;10212;42.714;23.310;2022-11-24T17:09:06;5.03;;;3.38;;
20104;SDS011;10212;42.714;23.310;2022-11-24T17:14:08;4.68;;;3.47;;
20104;SDS011;10212;42.714;23.310;2022-11-24T17:19:09;4.68;;;3.15;;
20104;SDS011;10212;42.714;23.310;2022-11-24T17:24:09;5.47;;;3.30;;
20104;SDS011;10212;42.714;23.310;2022-11-24T17:29:16;4.60;;;3.42;;
20104;SDS011;10212;42.714;23.310;2022-11-24T17:34:17;4.65;;;3.35;;
20104;SDS011;10212;42.714;23.310;2022-11-24T17:39:17;5.78;;;3.70;;
20104;SDS011;10212;42.714;23.310;2022-11-24T17:44:18;4.13;;;3.10;;
20104;SDS011;10212;42.714;23.310;2022-11-24T17:49:18;4.15;;;3.38;;
20104;SDS011;10212;42.714;23.310;2022-11-24T17:54:20;4.93;;;3.70;;
20104;SDS011;10212;42.714;23.310;2022-11-24T17:59:20;7.97;;;4.47;;
20104;SDS011;10212;42.714;23.310;2022-11-24T18:04:21;6.05;;;3.90;;
20104;SDS011;10212;42.714;23.310;2022-11-24T18:09:22;5.90;;;4.45;;
20104;SDS011;10212;42.714;23.310;2022-11-24T18:14:23;6.13;;;4.10;;
20104;SDS011;10212;42.714;23.310;2022-11-24T18:19:23;4.95;;;3.80;;
20104;SDS011;10212;42.714;23.310;2022-11-24T18:24:24;5.30;;;3.85;;
20104;SDS011;10212;42.714;23.310;2022-11-24T18:29:25;6.43;;;4.53;;
20104;SDS011;10212;42.714;23.310;2022-11-24T18:34:25;7.40;;;4.70;;
20104;SDS011;10212;42.714;23.310;2022-11-24T18:39:26;6.47;;;4.50;;
20104;SDS011;10212;42.714;23.310;2022-11-24T18:44:28;6.03;;;4.68;;
20104;SDS011;10212;42.714;23.310;2022-11-24T18:49:30;7.22;;;4.43;;
20104;SDS011;10212;42.714;23.310;2022-11-24T18:54:31;8.15;;;4.70;;
20104;SDS011;10212;42.714;23.310;2022-11-24T18:59:31;6.57;;;4.18;;
20104;SDS011;10212;42.714;23.310;2022-11-24T19:04:33;4.82;;;3.45;;
20104;SDS011;10212;42.714;23.310;2022-11-24T19:09:34;4.88;;;3.55;;
20104;SDS011;10212;42.714;23.310;2022-11-24T19:14:35;5.07;;;3.63;;
20104;SDS011;10212;42.714;23.310;2022-11-24T19:19:40;5.20;;;3.78;;
20104;SDS011;10212;42.714;23.310;2022-11-24T19:24:40;5.20;;;3.60;;
20104;SDS011;10212;42.714;23.310;2022-11-24T19:29:41;7.75;;;3.90;;
20104;SDS011;10212;42.714;23.310;2022-11-24T19:34:41;5.30;;;3.50;;
20104;SDS011;10212;42.714;23.310;2022-11-24T19:39:42;3.80;;;3.00;;
20104;SDS011;10212;42.714;23.310;2022-11-24T19:44:42;5.78;;;3.78;;
20104;SDS011;10212;42.714;23.310;2022-11-24T19:49:43;4.97;;;3.20;;
20104;SDS011;10212;42.714;23.310;2022-11-24T19:54:45;5.13;;;3.50;;
20104;SDS011;10212;42.714;23.310;2022-11-24T19:59:46;4.18;;;3.33;;
20104;SDS011;10212;42.714;23.310;2022-11-24T20:04:46;5.40;;;3.17;;
20104;SDS011;10212;42.714;23.310;2022-11-24T20:09:47;3.67;;;3.20;;
20104;SDS011;10212;42.714;23.310;2022-11-24T20:14:47;4.32;;;2.95;;
20104;SDS011;10212;42.714;23.310;2022-11-24T20:19:48;4.80;;;3.47;;
20104;SDS011;10212;42.714;23.310;2022-11-24T20:24:49;5.90;;;3.67;;
20104;SDS011;10212;42.714;23.310;2022-11-24T20:29:49;4.13;;;3.38;;
20104;SDS011;10212;42.714;23.310;2022-11-24T20:34:50;5.03;;;3.78;;
20104;SDS011;10212;42.714;23.310;2022-11-24T20:39:52;5.13;;;3.40;;
20104;SDS011;10212;42.714;23.310;2022-11-24T20:44:53;5.45;;;3.60;;
20104;SDS011;10212;42.714;23.310;2022-11-24T20:49:54;5.22;;;3.58;;
20104;SDS011;10212;42.714;23.310;2022-11-24T20:54:54;4.93;;;3.50;;
20104;SDS011;10212;42.714;23.310;2022-11-24T20:59:56;4.00;;;2.97;;
20104;SDS011;10212;42.714;23.310;2022-11-24T21:04:56;8.57;;;3.90;;
20104;SDS011;10212;42.714;23.310;2022-11-24T21:09:57;5.78;;;3.40;;
20104;SDS011;10212;42.714;23.310;2022-11-24T21:14:57;6.22;;;3.83;;
20104;SDS011;10212;42.714;23.310;2022-11-24T21:19:58;4.28;;;3.33;;
20104;SDS011;10212;42.714;23.310;2022-11-24T21:24:58;4.28;;;3.03;;
20104;SDS011;10212;42.714;23.310;2022-11-24T21:29:58;3.20;;;2.90;;
20104;SDS011;10212;42.714;23.310;2022-11-24T21:34:59;5.35;;;3.58;;
20104;SDS011;10212;42.714;23.310;2022-11-24T21:39:59;4.88;;;3.60;;
20104;SDS011;10212;42.714;23.310;2022-11-24T21:45:00;5.35;;;3.67;;
20104;SDS011;10212;42.714;23.310;2022-11-24T21:50:01;6.30;;;3.50;;
20104;SDS011;10212;42.714;23.310;2022-11-24T21:55:02;5.70;;;3.42;;
20104;SDS011;10212;42.714;23.310;2022-11-24T22:00:04;5.88;;;3.20;;
20104;SDS011;10212;42.714;23.310;2022-11-24T22:05:05;5.68;;;3.60;;
20104;SDS011;10212;42.714;23.310;2022-11-24T22:10:06;5.10;;;3.00;;
20104;SDS011;10212;42.714;23.310;2022-11-24T22:15:07;3.45;;;2.90;;
20104;SDS011;10212;42.714;23.310;2022-11-24T22:20:08;3.15;;;2.40;;
20104;SDS011;10212;42.714;23.310;2022-11-24T22:25:09;3.60;;;2.65;;
20104;SDS011;10212;42.714;23.310;2022-11-24T22:30:10;4.47;;;2.50;;
20104;SDS011;10212;42.714;23.310;2022-11-24T22:35:10;3.38;;;3.05;;
20104;SDS011;10212;42.714;23.310;2022-11-24T22:40:11;3.45;;;2.72;;
20104;SDS011;10212;42.714;23.310;2022-11-24T22:45:11;4.22;;;2.35;;
20104;SDS011;10212;42.714;23.310;2022-11-24T22:50:12;3.40;;;2.30;;
20104;SDS011;10212;42.714;23.310;2022-11-24T22:55:13;3.88;;;2.25;;
20104;SDS011;10212;42.714;23.310;2022-11-24T23:00:14;2.65;;;2.25;;
20104;SDS011;10212;42.714;23.310;2022-11-24T23:05:15;3.22;;;2.10;;
20104;SDS011;10212;42.714;23.310;2022-11-24T23:10:15;2.63;;;1.90;;
20104;SDS011;10212;42.714;23.310;2022-11-24T23:15:16;2.80;;;2.53;;
20104;SDS011;10212;42.714;23.310;2022-11-24T23:20:17;3.72;;;2.50;;
20104;SDS011;10212;42.714;23.310;2022-11-24T23:25:17;4.90;;;2.35;;
20104;SDS011;10212;42.714;23.310;2022-11-24T23:30:18;3.95;;;2.40;;
20104;SDS011;10212;42.714;23.310;2022-11-24T23:39:43;4.35;;;2.85;;
20104;SDS011;10212;42.714;23.310;2022-11-24T23:44:43;9.30;;;2.60;;
20104;SDS011;10212;42.714;23.310;2022-11-24T23:49:44;4.50;;;3.10;;
20104;SDS011;10212;42.714;23.310;2022-11-24T23:54:45;4.65;;;2.95;;
20104;SDS011;10212;42.714;23.310;2022-11-24T23:59:46;4.82;;;3.40;;
